Time;durP1;ratioP1;P1;durP2;ratioP2;P2;SDS_P1;SDS_P2;PMS_P1;PMS_P2;Temp;Humidity;BMP_temperature;BMP_pressure;BME280_temperature;BME280_humidity;BME280_pressure;Samples;Min_cycle;Max_cycle;Signal;HPM_P1;HPM_P2
2021/01/27 00:01:27;;;;;;;;;;;20.90;99.90;;;;;;4994753;28;19914;-83
2021/01/27 00:03:53;;;;;;;;;;;20.90;99.90;;;;;;4994126;28;20498;-83
2021/01/27 00:06:20;;;;;;;;;;;21.00;99.90;;;;;;4994921;28;19910;-82
2021/01/27 00:08:47;;;;;;;;;;;20.90;99.90;;;;;;4994568;28;19910;-83
2021/01/27 00:11:13;;;;;;;;;;;20.90;99.90;;;;;;4994153;28;19910;-83
2021/01/27 00:13:40;;;;;;;;;;;20.90;99.90;;;;;;4993896;28;20010;-81
2021/01/27 00:16:08;;;;;;;;;;;20.90;99.90;;;;;;4994345;28;20364;-85
2021/01/27 00:18:35;;;;;;;;;;;20.90;99.90;;;;;;4994349;28;19914;-83
2021/01/27 00:21:01;;;;;;;;;;;20.90;99.90;;;;;;4994157;28;19937;-83
2021/01/27 00:23:28;;;;;;;;;;;20.90;99.90;;;;;;4991702;28;20013;-83
2021/01/27 00:25:54;;;;;;;;;;;21.00;99.90;;;;;;4993395;28;19914;-82
2021/01/27 00:28:21;;;;;;;;;;;21.00;99.90;;;;;;4992822;28;19913;-82
2021/01/27 00:30:48;;;;;;;;;;;21.00;99.90;;;;;;4997991;28;19989;-82
2021/01/27 00:33:15;;;;;;;;;;;21.10;99.90;;;;;;4995189;28;20348;-82
2021/01/27 00:35:46;;;;;;;;;;;21.10;99.90;;;;;;4993462;28;19925;-82
2021/01/27 00:38:15;;;;;;;;;;;21.00;99.90;;;;;;4993893;28;20383;-83
2021/01/27 00:40:42;;;;;;;;;;;21.10;99.90;;;;;;4993284;28;19914;-84
2021/01/27 00:43:09;;;;;;;;;;;21.00;99.90;;;;;;4991460;28;19914;-85
2021/01/27 00:45:35;;;;;;;;;;;21.00;99.90;;;;;;4966844;28;20344;-84
2021/01/27 00:48:02;;;;;;;;;;;20.90;99.90;;;;;;4995134;28;19914;-85
2021/01/27 00:50:29;;;;;;;;;;;21.00;99.90;;;;;;4995026;28;19929;-81
2021/01/27 00:52:55;;;;;;;;;;;21.00;99.90;;;;;;4992949;28;19928;-85
2021/01/27 00:55:25;;;;;;;;;;;21.00;99.90;;;;;;4991894;28;20304;-82
2021/01/27 00:57:51;;;;;;;;;;;21.00;99.90;;;;;;4994318;28;20277;-83
2021/01/27 01:00:20;;;;;;;;;;;21.10;99.90;;;;;;4992985;28;19968;-84
2021/01/27 01:02:46;;;;;;;;;;;21.20;99.90;;;;;;4994000;28;20001;-83
2021/01/27 01:05:16;;;;;;;;;;;21.40;99.90;;;;;;4992966;28;19921;-83
2021/01/27 01:07:44;;;;;;;;;;;21.50;99.90;;;;;;4991920;28;19945;-84
2021/01/27 01:10:11;;;;;;;;;;;21.50;99.90;;;;;;4991878;28;19991;-83
2021/01/27 01:12:37;;;;;;;;;;;21.60;99.90;;;;;;4993216;28;19952;-81
2021/01/27 01:15:04;;;;;;;;;;;21.90;99.90;;;;;;4992287;28;19983;-82
2021/01/27 01:17:31;;;;;;;;;;;22.00;99.90;;;;;;4992491;28;19921;-81
2021/01/27 01:19:58;;;;;;;;;;;22.10;99.90;;;;;;4975970;28;19921;-78
2021/01/27 01:22:25;;;;;;;;;;;22.00;99.90;;;;;;4974914;28;19920;-77
2021/01/27 01:24:52;;;;;;;;;;;22.00;99.90;;;;;;4989749;28;19914;-78
2021/01/27 01:27:18;;;;;;;;;;;22.00;99.90;;;;;;4994529;28;19914;-77
2021/01/27 01:29:45;;;;;;;;;;;22.00;99.90;;;;;;4992317;28;19925;-77
2021/01/27 01:32:12;;;;;;;;;;;22.00;99.90;;;;;;4992443;28;20352;-78
2021/01/27 01:34:38;;;;;;;;;;;22.00;99.90;;;;;;4993291;28;19937;-77
2021/01/27 01:37:05;;;;;;;;;;;22.00;99.90;;;;;;4992969;28;19918;-78
2021/01/27 01:39:33;;;;;;;;;;;22.00;99.90;;;;;;4992952;28;19917;-79
2021/01/27 01:42:00;;;;;;;;;;;22.10;99.90;;;;;;4992997;28;20005;-77
2021/01/27 01:44:27;;;;;;;;;;;22.10;99.90;;;;;;4992574;28;19914;-77
2021/01/27 01:46:53;;;;;;;;;;;22.10;99.90;;;;;;4992824;28;20374;-77
2021/01/27 01:49:20;;;;;;;;;;;22.10;99.90;;;;;;4992636;28;19925;-77
2021/01/27 01:51:51;;;;;;;;;;;22.00;99.90;;;;;;4992282;28;19922;-78
2021/01/27 01:54:36;;;;;;;;;;;22.00;99.90;;;;;;4990213;28;20289;-78
2021/01/27 01:57:06;;;;;;;;;;;22.10;99.90;;;;;;4992570;28;19980;-78
2021/01/27 01:59:33;;;;;;;;;;;22.10;99.90;;;;;;4992149;28;19922;-77
2021/01/27 02:02:04;;;;;;;;;;;22.00;99.90;;;;;;4975822;28;19921;-78
2021/01/27 02:04:40;;;;;;;;;;;22.00;99.90;;;;;;4993270;28;19910;-79
2021/01/27 02:07:07;;;;;;;;;;;22.10;99.90;;;;;;4992712;28;19914;-79
2021/01/27 02:09:34;;;;;;;;;;;22.10;99.90;;;;;;4992755;28;19963;-77
2021/01/27 02:12:03;;;;;;;;;;;22.10;99.90;;;;;;4992732;28;20364;-78
2021/01/27 02:14:33;;;;;;;;;;;22.10;99.90;;;;;;4993481;28;19914;-78
2021/01/27 02:17:18;;;;;;;;;;;22.10;99.90;;;;;;4992015;28;19925;-79
2021/01/27 02:20:07;;;;;;;;;;;22.10;99.90;;;;;;4982674;28;19975;-77
2021/01/27 02:22:33;;;;;;;;;;;22.20;99.90;;;;;;4992531;28;20687;-77
2021/01/27 02:25:15;;;;;;;;;;;22.20;99.90;;;;;;4990561;28;19914;-76
2021/01/27 02:27:41;;;;;;;;;;;22.10;99.90;;;;;;4992079;28;19971;-77
2021/01/27 02:30:23;;;;;;;;;;;22.00;99.90;;;;;;4993047;28;20285;-77
2021/01/27 02:32:53;;;;;;;;;;;22.00;99.90;;;;;;4988291;28;19944;-78
2021/01/27 02:35:19;;;;;;;;;;;22.00;99.90;;;;;;4991359;28;20004;-77
2021/01/27 02:37:49;;;;;;;;;;;22.10;99.90;;;;;;4996309;28;20409;-78
2021/01/27 02:40:35;;;;;;;;;;;22.10;99.90;;;;;;4996601;28;19913;-79
2021/01/27 02:43:02;;;;;;;;;;;22.00;99.90;;;;;;4996309;28;19921;-80
2021/01/27 02:45:33;;;;;;;;;;;21.80;99.90;;;;;;4996773;28;20352;-79
2021/01/27 02:48:06;;;;;;;;;;;21.80;99.90;;;;;;4997436;28;19910;-79
2021/01/27 02:50:39;;;;;;;;;;;21.70;99.90;;;;;;4996960;28;19917;-79
2021/01/27 02:53:34;;;;;;;;;;;21.70;99.90;;;;;;4977430;28;20401;-79
2021/01/27 02:56:10;;;;;;;;;;;21.70;99.90;;;;;;4973225;28;19973;-77
2021/01/27 02:58:38;;;;;;;;;;;21.70;99.90;;;;;;4977154;28;19929;-79
2021/01/27 03:01:13;;;;;;;;;;;21.60;99.90;;;;;;4969561;28;19914;-80
2021/01/27 03:03:52;;;;;;;;;;;21.60;99.90;;;;;;4996478;28;19924;-80
2021/01/27 03:06:19;;;;;;;;;;;21.50;99.90;;;;;;4996591;28;19913;-79
2021/01/27 03:08:52;;;;;;;;;;;21.50;99.90;;;;;;4996680;28;19910;-80
2021/01/27 03:11:24;;;;;;;;;;;21.30;99.90;;;;;;4995858;28;20402;-80
2021/01/27 03:13:50;;;;;;;;;;;21.10;99.90;;;;;;4995356;28;19914;-80
2021/01/27 03:16:21;;;;;;;;;;;21.00;99.90;;;;;;4995740;28;19926;-79
2021/01/27 03:18:54;;;;;;;;;;;20.90;99.90;;;;;;4981886;28;19918;-79
2021/01/27 03:21:24;;;;;;;;;;;20.80;99.90;;;;;;4994855;28;19914;-80
2021/01/27 03:23:56;;;;;;;;;;;20.70;99.90;;;;;;4993214;28;19925;-82
2021/01/27 03:26:28;;;;;;;;;;;20.70;99.90;;;;;;4982877;28;19920;-79
2021/01/27 03:29:02;;;;;;;;;;;20.60;99.90;;;;;;4995805;28;19916;-78
2021/01/27 03:31:29;;;;;;;;;;;20.60;99.90;;;;;;4994039;28;19914;-80
2021/01/27 03:33:55;;;;;;;;;;;20.60;99.90;;;;;;4994982;28;19913;-78
2021/01/27 03:36:22;;;;;;;;;;;20.50;99.90;;;;;;4995789;28;20354;-80
2021/01/27 03:38:51;;;;;;;;;;;20.60;99.90;;;;;;4995768;28;20356;-79
2021/01/27 03:41:23;;;;;;;;;;;20.60;99.90;;;;;;4995236;28;19964;-78
2021/01/27 03:44:08;;;;;;;;;;;20.60;99.90;;;;;;4975029;28;20433;-78
2021/01/27 03:46:44;;;;;;;;;;;20.60;99.90;;;;;;4995429;28;19910;-78
2021/01/27 03:49:13;;;;;;;;;;;20.60;99.90;;;;;;4978846;28;19926;-78
2021/01/27 03:51:46;;;;;;;;;;;20.60;99.90;;;;;;4974871;28;19910;-78
2021/01/27 03:54:16;;;;;;;;;;;20.70;99.90;;;;;;4973762;28;19926;-78
2021/01/27 03:56:49;;;;;;;;;;;20.70;99.90;;;;;;4975776;28;20422;-77
2021/01/27 03:59:15;;;;;;;;;;;20.80;99.90;;;;;;4976003;28;19921;-78
2021/01/27 04:01:50;;;;;;;;;;;20.90;99.90;;;;;;4988697;28;19917;-79
2021/01/27 04:04:16;;;;;;;;;;;21.00;99.90;;;;;;4993063;28;19964;-78
2021/01/27 04:06:43;;;;;;;;;;;21.10;99.90;;;;;;4994493;28;20005;-78
2021/01/27 04:09:10;;;;;;;;;;;21.20;99.90;;;;;;4995085;28;19909;-79
2021/01/27 04:11:37;;;;;;;;;;;21.20;99.90;;;;;;4995588;28;20388;-79
2021/01/27 04:14:04;;;;;;;;;;;21.20;99.90;;;;;;4995443;28;19949;-78
2021/01/27 04:16:31;;;;;;;;;;;21.10;99.90;;;;;;4995703;28;20356;-79
2021/01/27 04:18:59;;;;;;;;;;;20.90;99.90;;;;;;4995036;28;20003;-79
2021/01/27 04:21:26;;;;;;;;;;;20.60;99.90;;;;;;4994203;28;20056;-78
2021/01/27 04:23:52;;;;;;;;;;;20.50;99.90;;;;;;4994511;28;19918;-78
2021/01/27 04:26:19;;;;;;;;;;;20.40;99.90;;;;;;4987642;28;19914;-79
2021/01/27 04:28:48;;;;;;;;;;;20.40;99.90;;;;;;4990462;28;19935;-79
2021/01/27 04:31:14;;;;;;;;;;;20.50;99.90;;;;;;4992488;28;19917;-79
2021/01/27 04:33:41;;;;;;;;;;;20.50;99.90;;;;;;4994282;28;19952;-79
2021/01/27 04:36:08;;;;;;;;;;;20.60;99.90;;;;;;4993716;28;20340;-79
2021/01/27 04:38:35;;;;;;;;;;;20.60;99.90;;;;;;4994288;28;19918;-79
2021/01/27 04:41:02;;;;;;;;;;;20.60;99.90;;;;;;4993665;28;19918;-78
2021/01/27 04:43:54;;;;;;;;;;;20.60;99.90;;;;;;4993576;28;19910;-79
2021/01/27 04:46:34;;;;;;;;;;;20.60;99.90;;;;;;4978721;28;20013;-80
2021/01/27 04:49:03;;;;;;;;;;;20.50;99.90;;;;;;4993473;28;20284;-79
2021/01/27 04:51:39;;;;;;;;;;;20.50;99.90;;;;;;4993809;28;19918;-78
2021/01/27 04:54:13;;;;;;;;;;;20.40;99.90;;;;;;4993908;28;19925;-79
2021/01/27 04:56:58;;;;;;;;;;;20.30;99.90;;;;;;4975816;28;20616;-79
2021/01/27 04:59:37;;;;;;;;;;;20.40;99.90;;;;;;4991354;28;20342;-80
2021/01/27 05:02:18;;;;;;;;;;;20.40;99.90;;;;;;4993163;28;19918;-80
2021/01/27 05:05:06;;;;;;;;;;;20.50;99.90;;;;;;4991702;28;19968;-80
2021/01/27 05:07:50;;;;;;;;;;;20.50;99.90;;;;;;4993059;28;19953;-79
2021/01/27 05:10:25;;;;;;;;;;;20.60;99.90;;;;;;4992928;28;19996;-80
2021/01/27 05:12:54;;;;;;;;;;;20.60;99.90;;;;;;4993624;28;20375;-79
2021/01/27 05:15:25;;;;;;;;;;;20.60;99.90;;;;;;4993112;28;20331;-78
2021/01/27 05:17:52;;;;;;;;;;;20.60;99.90;;;;;;4992855;28;20010;-80
2021/01/27 05:20:20;;;;;;;;;;;20.60;99.90;;;;;;4993446;28;19914;-80
2021/01/27 05:22:47;;;;;;;;;;;20.50;99.90;;;;;;4993173;28;19910;-81
2021/01/27 05:25:17;;;;;;;;;;;20.50;99.90;;;;;;4991812;28;19960;-80
2021/01/27 05:27:45;;;;;;;;;;;20.50;99.90;;;;;;4992199;28;19914;-80
2021/01/27 05:30:11;;;;;;;;;;;20.40;99.90;;;;;;4991310;28;19921;-80
2021/01/27 05:32:52;;;;;;;;;;;20.40;99.90;;;;;;5007884;28;20285;-80
2021/01/27 05:35:30;;;;;;;;;;;20.50;99.90;;;;;;4974366;28;19914;-80
2021/01/27 05:37:58;;;;;;;;;;;20.40;99.90;;;;;;4974402;28;19925;-80
2021/01/27 05:40:37;;;;;;;;;;;20.40;99.90;;;;;;4990989;28;19921;-79
2021/01/27 05:43:28;;;;;;;;;;;20.40;99.90;;;;;;4974677;28;19917;-80
2021/01/27 05:46:08;;;;;;;;;;;20.50;99.90;;;;;;4998054;28;19941;-79
2021/01/27 05:48:41;;;;;;;;;;;20.50;99.90;;;;;;4992567;28;19923;-79
2021/01/27 05:51:08;;;;;;;;;;;20.50;99.90;;;;;;4991896;28;19921;-79
2021/01/27 05:53:34;;;;;;;;;;;20.50;99.90;;;;;;4990446;28;19932;-79
2021/01/27 05:56:04;;;;;;;;;;;20.60;99.90;;;;;;4991880;28;20020;-81
2021/01/27 05:58:32;;;;;;;;;;;20.60;99.90;;;;;;4992823;28;20020;-80
2021/01/27 06:01:17;;;;;;;;;;;20.60;99.90;;;;;;4991179;28;19921;-79
2021/01/27 06:03:51;;;;;;;;;;;20.70;99.90;;;;;;4992556;28;19914;-79
2021/01/27 06:06:19;;;;;;;;;;;20.70;99.90;;;;;;4990031;28;19918;-80
2021/01/27 06:08:48;;;;;;;;;;;20.80;99.90;;;;;;4991024;28;20349;-80
2021/01/27 06:11:15;;;;;;;;;;;20.70;99.90;;;;;;4990678;28;20292;-80
2021/01/27 06:13:42;;;;;;;;;;;20.50;99.90;;;;;;4993770;28;19918;-80
2021/01/27 06:16:17;;;;;;;;;;;20.40;99.90;;;;;;4993115;28;19992;-80
2021/01/27 06:18:44;;;;;;;;;;;20.30;99.90;;;;;;4994275;28;19921;-80
2021/01/27 06:21:14;;;;;;;;;;;20.30;99.90;;;;;;4993505;28;20036;-80
2021/01/27 06:23:50;;;;;;;;;;;20.10;99.90;;;;;;4990081;28;19914;-81
2021/01/27 06:26:25;;;;;;;;;;;20.20;99.90;;;;;;4994658;28;20322;-80
2021/01/27 06:29:14;;;;;;;;;;;20.10;99.90;;;;;;4992589;28;20277;-81
2021/01/27 06:32:13;;;;;;;;;;;20.10;99.90;;;;;;4970868;28;19993;-84
2021/01/27 06:34:55;;;;;;;;;;;20.10;99.90;;;;;;4955352;28;19921;-82
2021/01/27 06:37:40;;;;;;;;;;;20.10;99.90;;;;;;4993250;28;19929;-82
2021/01/27 06:40:12;;;;;;;;;;;20.00;99.90;;;;;;4993524;28;20328;-79
2021/01/27 06:42:42;;;;;;;;;;;19.90;99.90;;;;;;4992576;28;19921;-81
2021/01/27 06:45:08;;;;;;;;;;;19.80;99.90;;;;;;4993375;28;20335;-78
2021/01/27 06:47:53;;;;;;;;;;;19.80;99.90;;;;;;4993553;28;19918;-82
2021/01/27 06:50:29;;;;;;;;;;;19.70;99.90;;;;;;4994148;28;19914;-81
2021/01/27 06:53:16;;;;;;;;;;;19.70;99.90;;;;;;4994631;28;19925;-80
2021/01/27 06:55:55;;;;;;;;;;;19.60;99.90;;;;;;4980584;28;20298;-81
2021/01/27 06:58:25;;;;;;;;;;;19.70;99.90;;;;;;4992560;28;20384;-81
2021/01/27 07:01:09;;;;;;;;;;;19.70;99.90;;;;;;4993083;28;19972;-80
2021/01/27 07:03:42;;;;;;;;;;;19.70;99.90;;;;;;4994703;28;19910;-81
2021/01/27 07:06:15;;;;;;;;;;;19.80;99.90;;;;;;4993878;28;19913;-83
2021/01/27 07:08:41;;;;;;;;;;;19.70;99.90;;;;;;4977106;28;19910;-86
2021/01/27 07:11:16;;;;;;;;;;;19.70;99.90;;;;;;4994263;28;19910;-83
2021/01/27 07:13:42;;;;;;;;;;;19.60;99.90;;;;;;4992253;28;19917;-82
2021/01/27 07:16:27;;;;;;;;;;;19.60;99.90;;;;;;4976135;28;19922;-81
2021/01/27 07:19:29;;;;;;;;;;;19.50;99.90;;;;;;4994091;28;19959;-83
2021/01/27 07:21:59;;;;;;;;;;;19.50;99.90;;;;;;4913742;29;20501;-82
2021/01/27 07:24:31;;;;;;;;;;;19.50;99.90;;;;;;4970646;28;19918;-83
2021/01/27 07:27:11;;;;;;;;;;;19.50;99.90;;;;;;4984778;28;20439;-82
2021/01/27 07:29:56;;;;;;;;;;;19.50;99.90;;;;;;5001334;28;19937;-82
2021/01/27 07:32:35;;;;;;;;;;;19.40;99.90;;;;;;4991390;28;19929;-82
2021/01/27 07:35:05;;;;;;;;;;;19.40;99.90;;;;;;4988291;28;19918;-82
2021/01/27 07:38:07;;;;;;;;;;;19.40;99.90;;;;;;4992294;28;20376;-82
2021/01/27 07:40:45;;;;;;;;;;;19.50;99.90;;;;;;4934709;29;19915;-84
2021/01/27 07:43:23;;;;;;;;;;;19.50;99.90;;;;;;4984828;28;20424;-82
2021/01/27 07:45:53;;;;;;;;;;;19.60;99.90;;;;;;4993472;28;19918;-83
2021/01/27 07:48:19;;;;;;;;;;;19.60;99.90;;;;;;4993457;28;20346;-82
2021/01/27 07:51:05;;;;;;;;;;;19.60;99.90;;;;;;4993543;28;19909;-81
2021/01/27 07:53:32;;;;;;;;;;;19.70;99.90;;;;;;4974590;28;19992;-82
2021/01/27 07:56:20;;;;;;;;;;;19.70;99.90;;;;;;4974677;28;19922;-81
2021/01/27 07:58:57;;;;;;;;;;;19.70;99.90;;;;;;4976599;28;19968;-83
2021/01/27 08:01:27;;;;;;;;;;;19.80;99.90;;;;;;4994072;28;19968;-81
2021/01/27 08:03:59;;;;;;;;;;;19.70;99.90;;;;;;4993244;28;19913;-80
2021/01/27 08:06:27;;;;;;;;;;;19.80;99.90;;;;;;4992701;28;20443;-81
2021/01/27 08:08:58;;;;;;;;;;;19.70;99.90;;;;;;4991356;28;19925;-80
2021/01/27 08:12:01;;;;;;;;;;;19.60;99.90;;;;;;4993594;28;19964;-82
2021/01/27 08:15:02;;;;;;;;;;;19.50;99.90;;;;;;4932645;29;20025;-83
2021/01/27 08:17:48;;;;;;;;;;;19.40;99.90;;;;;;4930674;29;20014;-82
2021/01/27 08:20:21;;;;;;;;;;;19.40;99.90;;;;;;4991882;28;19972;-78
2021/01/27 08:22:49;;;;;;;;;;;19.40;99.90;;;;;;4987667;28;21400;-82
2021/01/27 08:25:41;;;;;;;;;;;19.40;99.90;;;;;;4991728;28;19922;-78
2021/01/27 08:28:20;;;;;;;;;;;19.40;99.90;;;;;;4960924;28;19913;-81
2021/01/27 08:31:05;;;;;;;;;;;19.50;99.90;;;;;;4990588;28;20353;-81
2021/01/27 08:33:54;;;;;;;;;;;19.40;99.90;;;;;;4992647;28;19914;-81
2021/01/27 08:36:30;;;;;;;;;;;19.40;99.90;;;;;;4991564;28;19921;-81
2021/01/27 08:38:56;;;;;;;;;;;19.50;99.90;;;;;;4992490;28;19910;-81
2021/01/27 08:41:38;;;;;;;;;;;19.50;99.90;;;;;;4992135;28;19933;-83
2021/01/27 08:44:05;;;;;;;;;;;19.50;99.90;;;;;;4992217;28;19910;-81
2021/01/27 08:46:34;;;;;;;;;;;19.30;99.90;;;;;;4992005;28;20218;-80
2021/01/27 08:49:01;;;;;;;;;;;19.20;99.90;;;;;;4992537;28;19910;-80
2021/01/27 08:51:40;;;;;;;;;;;19.20;99.90;;;;;;4993847;28;20012;-81
2021/01/27 08:54:26;;;;;;;;;;;19.10;99.90;;;;;;4992664;28;19929;-81
2021/01/27 08:57:22;;;;;;;;;;;19.10;99.90;;;;;;4993001;28;19926;-80
2021/01/27 08:59:59;;;;;;;;;;;19.00;99.90;;;;;;4967022;28;20362;-81
2021/01/27 09:02:43;;;;;;;;;;;18.90;99.90;;;;;;4972877;28;19917;-81
2021/01/27 09:05:12;;;;;;;;;;;18.90;99.90;;;;;;4972883;28;19914;-82
2021/01/27 09:07:54;;;;;;;;;;;18.80;99.90;;;;;;4984769;28;20361;-81
2021/01/27 09:10:25;;;;;;;;;;;18.60;99.90;;;;;;4990172;28;19920;-79
2021/01/27 09:12:52;;;;;;;;;;;18.60;99.90;;;;;;4991314;28;20000;-80
2021/01/27 09:15:29;;;;;;;;;;;18.50;99.90;;;;;;4991508;28;20329;-80
2021/01/27 09:17:57;;;;;;;;;;;18.50;99.90;;;;;;4981694;28;19917;-83
2021/01/27 09:20:25;;;;;;;;;;;18.60;99.90;;;;;;4991785;28;20416;-81
2021/01/27 09:22:58;;;;;;;;;;;18.60;99.90;;;;;;4990670;28;19933;-83
2021/01/27 09:25:26;;;;;;;;;;;18.60;99.90;;;;;;4990309;28;19918;-83
2021/01/27 09:28:06;;;;;;;;;;;18.60;99.90;;;;;;4990419;28;19925;-84
2021/01/27 09:30:33;;;;;;;;;;;18.60;99.90;;;;;;4988256;28;19922;-82
2021/01/27 09:33:09;;;;;;;;;;;18.60;99.90;;;;;;4991788;28;19937;-82
2021/01/27 09:35:36;;;;;;;;;;;18.70;99.90;;;;;;4989965;28;19938;-82
2021/01/27 09:38:09;;;;;;;;;;;18.70;99.90;;;;;;4988800;28;19969;-84
2021/01/27 09:40:36;;;;;;;;;;;18.70;99.90;;;;;;4991373;28;19914;-83
2021/01/27 09:43:04;;;;;;;;;;;18.70;99.90;;;;;;4990066;28;19940;-84
2021/01/27 09:45:32;;;;;;;;;;;18.70;99.90;;;;;;4989407;28;20271;-83
2021/01/27 09:48:00;;;;;;;;;;;18.70;99.90;;;;;;4989918;28;19914;-87
2021/01/27 09:50:27;;;;;;;;;;;18.60;99.90;;;;;;4993899;28;20569;-81
2021/01/27 09:52:56;;;;;;;;;;;18.60;99.90;;;;;;4989702;28;19918;-82
2021/01/27 09:55:24;;;;;;;;;;;18.70;99.90;;;;;;4990432;28;19926;-82
2021/01/27 09:57:51;;;;;;;;;;;18.70;99.90;;;;;;4989887;28;19924;-81
2021/01/27 10:00:26;;;;;;;;;;;18.70;99.90;;;;;;4989040;28;20421;-85
2021/01/27 10:02:53;;;;;;;;;;;18.70;99.90;;;;;;4990046;28;19930;-82
2021/01/27 10:05:33;;;;;;;;;;;18.60;99.90;;;;;;4989739;28;19914;-80
2021/01/27 10:08:01;;;;;;;;;;;18.60;99.90;;;;;;4990460;28;19910;-80
2021/01/27 10:10:31;;;;;;;;;;;18.50;99.90;;;;;;4990067;28;19933;-85
2021/01/27 10:12:58;;;;;;;;;;;18.50;99.90;;;;;;4990479;28;19969;-83
2021/01/27 10:15:34;;;;;;;;;;;18.50;99.90;;;;;;4989524;28;19956;-83
2021/01/27 10:18:12;;;;;;;;;;;18.50;99.90;;;;;;4972957;28;19918;-81
2021/01/27 10:20:41;;;;;;;;;;;18.60;99.90;;;;;;4990776;28;20555;-83
2021/01/27 10:23:12;;;;;;;;;;;18.50;99.90;;;;;;4990030;28;19922;-82
2021/01/27 10:25:40;;;;;;;;;;;18.50;99.90;;;;;;4989444;28;19968;-81
2021/01/27 10:28:20;;;;;;;;;;;18.60;99.90;;;;;;4990324;28;19918;-84
2021/01/27 10:30:49;;;;;;;;;;;18.60;99.90;;;;;;4990261;28;19914;-81
2021/01/27 10:36:31;;;;;;;;;;;18.50;99.90;;;;;;4978574;28;19933;-82
2021/01/27 10:39:09;;;;;;;;;;;18.50;99.90;;;;;;4990521;28;19918;-81
2021/01/27 10:41:36;;;;;;;;;;;18.50;99.90;;;;;;4990670;28;19997;-85
2021/01/27 10:44:22;;;;;;;;;;;18.60;99.90;;;;;;4990028;28;20384;-85
2021/01/27 10:46:52;;;;;;;;;;;18.60;99.90;;;;;;4990719;28;20588;-84
2021/01/27 10:49:19;;;;;;;;;;;18.60;99.90;;;;;;4990200;28;19926;-82
2021/01/27 10:51:45;;;;;;;;;;;18.60;99.90;;;;;;4990475;28;19914;-84
2021/01/27 10:54:13;;;;;;;;;;;18.60;99.90;;;;;;4978127;28;19929;-83
2021/01/27 10:56:40;;;;;;;;;;;18.60;99.90;;;;;;4989134;28;19932;-82
2021/01/27 10:59:07;;;;;;;;;;;18.60;99.90;;;;;;4993153;28;19917;-81
2021/01/27 11:01:33;;;;;;;;;;;18.50;99.90;;;;;;4994187;28;20383;-83
2021/01/27 11:04:00;;;;;;;;;;;18.60;99.90;;;;;;4993571;28;20021;-84
2021/01/27 11:06:27;;;;;;;;;;;18.60;99.90;;;;;;4975809;28;20057;-81
2021/01/27 11:08:53;;;;;;;;;;;18.60;99.90;;;;;;4993281;28;19918;-81
2021/01/27 11:11:23;;;;;;;;;;;18.60;99.90;;;;;;4992890;28;20038;-80
2021/01/27 11:13:49;;;;;;;;;;;18.60;99.90;;;;;;4993715;28;19920;-80
2021/01/27 11:16:16;;;;;;;;;;;18.50;99.90;;;;;;4992730;28;20457;-82
2021/01/27 11:18:43;;;;;;;;;;;18.50;99.90;;;;;;4993530;28;19922;-82
2021/01/27 11:21:10;;;;;;;;;;;18.60;99.90;;;;;;4993477;28;19910;-82
2021/01/27 11:23:36;;;;;;;;;;;18.50;99.90;;;;;;4992378;28;20012;-83
2021/01/27 11:26:03;;;;;;;;;;;18.60;99.90;;;;;;4993300;28;19934;-82
2021/01/27 11:28:30;;;;;;;;;;;18.60;99.90;;;;;;4993384;28;19928;-82
2021/01/27 11:30:57;;;;;;;;;;;18.70;99.90;;;;;;4992859;28;20579;-83
2021/01/27 11:33:24;;;;;;;;;;;18.70;99.90;;;;;;4993253;28;19914;-82
2021/01/27 11:35:52;;;;;;;;;;;18.70;99.90;;;;;;4991810;28;20440;-81
2021/01/27 11:38:19;;;;;;;;;;;18.70;99.90;;;;;;4992158;28;20377;-81
2021/01/27 11:40:45;;;;;;;;;;;18.70;99.90;;;;;;4992877;28;19917;-80
2021/01/27 11:43:12;;;;;;;;;;;18.80;99.90;;;;;;4992268;28;20700;-81
2021/01/27 11:45:39;;;;;;;;;;;18.80;99.90;;;;;;4992896;28;20435;-82
2021/01/27 11:48:07;;;;;;;;;;;18.80;99.90;;;;;;4992969;28;19909;-82
2021/01/27 11:50:36;;;;;;;;;;;18.90;99.90;;;;;;4992812;28;19914;-83
2021/01/27 11:53:04;;;;;;;;;;;18.90;99.90;;;;;;4992421;28;19926;-83
2021/01/27 11:55:31;;;;;;;;;;;18.90;99.90;;;;;;4991931;28;19921;-82
2021/01/27 11:57:57;;;;;;;;;;;19.00;99.90;;;;;;4975052;28;19922;-80
2021/01/27 12:00:27;;;;;;;;;;;19.00;99.90;;;;;;4993146;28;20013;-81
2021/01/27 12:02:56;;;;;;;;;;;19.10;99.90;;;;;;4992350;28;19924;-81
2021/01/27 12:05:23;;;;;;;;;;;19.00;99.90;;;;;;4992389;28;19922;-82
2021/01/27 12:07:50;;;;;;;;;;;19.00;99.90;;;;;;4991907;28;20020;-83
2021/01/27 12:10:17;;;;;;;;;;;19.00;99.90;;;;;;4992320;28;19920;-83
2021/01/27 12:12:43;;;;;;;;;;;19.10;99.90;;;;;;4992244;28;20373;-82
2021/01/27 12:15:10;;;;;;;;;;;19.10;99.90;;;;;;4984684;28;19977;-84
2021/01/27 12:17:37;;;;;;;;;;;19.10;99.90;;;;;;4992623;28;19921;-83
2021/01/27 12:20:04;;;;;;;;;;;19.10;99.90;;;;;;4975112;28;20353;-81
2021/01/27 12:22:31;;;;;;;;;;;19.10;99.90;;;;;;4992160;28;19910;-81
2021/01/27 12:24:57;;;;;;;;;;;19.10;99.90;;;;;;4992590;28;19910;-80
2021/01/27 12:27:24;;;;;;;;;;;19.10;99.90;;;;;;4991702;28;19929;-82
2021/01/27 12:29:51;;;;;;;;;;;19.10;99.90;;;;;;4994489;28;19910;-83
2021/01/27 12:32:18;;;;;;;;;;;19.10;99.90;;;;;;4995536;28;19914;-83
2021/01/27 12:34:44;;;;;;;;;;;19.10;99.90;;;;;;4994826;28;19914;-82
2021/01/27 12:37:11;;;;;;;;;;;19.10;99.90;;;;;;4993897;28;19922;-84
2021/01/27 12:39:38;;;;;;;;;;;19.10;99.90;;;;;;4994844;28;20357;-85
2021/01/27 12:42:06;;;;;;;;;;;19.00;99.90;;;;;;4995307;28;19925;-87
2021/01/27 12:44:34;;;;;;;;;;;19.00;99.90;;;;;;4995500;28;19936;-86
2021/01/27 12:47:01;;;;;;;;;;;19.00;99.90;;;;;;4994795;28;20376;-85
2021/01/27 12:49:27;;;;;;;;;;;19.00;99.90;;;;;;4994635;28;19913;-86
2021/01/27 12:51:54;;;;;;;;;;;18.90;99.90;;;;;;4994901;28;20315;-84
2021/01/27 12:54:20;;;;;;;;;;;18.90;99.90;;;;;;4994994;28;19922;-84
2021/01/27 12:56:47;;;;;;;;;;;18.90;99.90;;;;;;4994171;28;19972;-86
2021/01/27 12:59:14;;;;;;;;;;;18.80;99.90;;;;;;4993783;28;19914;-85
2021/01/27 13:01:40;;;;;;;;;;;18.80;99.90;;;;;;4994574;28;19961;-86
2021/01/27 13:04:09;;;;;;;;;;;18.80;99.90;;;;;;4994660;28;19956;-86
2021/01/27 13:06:35;;;;;;;;;;;18.70;99.90;;;;;;4994496;28;19921;-85
2021/01/27 13:09:02;;;;;;;;;;;18.70;99.90;;;;;;4994321;28;19910;-85
2021/01/27 13:11:29;;;;;;;;;;;18.70;99.90;;;;;;4974496;28;19918;-86
2021/01/27 13:13:56;;;;;;;;;;;18.70;99.90;;;;;;4993534;28;19910;-84
2021/01/27 13:16:22;;;;;;;;;;;18.70;99.90;;;;;;4994410;28;20179;-84
2021/01/27 13:18:49;;;;;;;;;;;18.70;99.90;;;;;;4994126;28;19917;-84
2021/01/27 13:21:16;;;;;;;;;;;18.60;99.90;;;;;;4993227;28;20389;-86
2021/01/27 13:23:47;;;;;;;;;;;18.60;99.90;;;;;;4994387;28;20353;-83
2021/01/27 13:26:15;;;;;;;;;;;18.60;99.90;;;;;;4993741;28;19922;-86
2021/01/27 13:28:43;;;;;;;;;;;18.50;99.90;;;;;;4994330;28;19910;-85
2021/01/27 13:31:10;;;;;;;;;;;18.60;99.90;;;;;;4994394;28;19940;-84
2021/01/27 13:33:37;;;;;;;;;;;18.60;99.90;;;;;;4993995;28;19917;-85
2021/01/27 13:36:07;;;;;;;;;;;18.60;99.90;;;;;;4994060;28;19914;-86
2021/01/27 13:38:36;;;;;;;;;;;18.60;99.90;;;;;;5009382;28;19914;-84
2021/01/27 13:41:03;;;;;;;;;;;18.50;99.90;;;;;;4995018;28;20292;-86
2021/01/27 13:43:32;;;;;;;;;;;18.50;99.90;;;;;;4994086;28;20390;-86
2021/01/27 13:46:02;;;;;;;;;;;18.50;99.90;;;;;;4993792;28;19960;-86
2021/01/27 13:48:29;;;;;;;;;;;18.40;99.90;;;;;;4993795;28;19989;-86
2021/01/27 13:50:55;;;;;;;;;;;18.40;99.90;;;;;;4994365;28;19909;-86
2021/01/27 13:53:22;;;;;;;;;;;18.40;99.90;;;;;;4994119;28;20001;-84
2021/01/27 13:55:48;;;;;;;;;;;18.40;99.90;;;;;;4993722;28;19914;-86
2021/01/27 13:58:16;;;;;;;;;;;18.40;99.90;;;;;;4993986;28;20016;-86
2021/01/27 14:00:42;;;;;;;;;;;18.40;99.90;;;;;;4994197;28;20383;-85
2021/01/27 14:03:09;;;;;;;;;;;18.50;99.90;;;;;;4993446;28;19953;-85
2021/01/27 14:05:36;;;;;;;;;;;18.50;99.90;;;;;;4999366;28;19929;-84
2021/01/27 14:08:06;;;;;;;;;;;18.60;99.90;;;;;;5000631;28;19921;-86
2021/01/27 14:10:33;;;;;;;;;;;18.60;99.90;;;;;;4993852;28;19945;-86
2021/01/27 14:13:01;;;;;;;;;;;18.70;99.90;;;;;;4993936;28;19954;-86
2021/01/27 14:15:30;;;;;;;;;;;18.70;99.90;;;;;;4993646;28;19914;-85
2021/01/27 14:17:56;;;;;;;;;;;18.70;99.90;;;;;;4976826;28;20353;-86
2021/01/27 14:20:25;;;;;;;;;;;18.80;99.90;;;;;;4994047;28;19977;-84
2021/01/27 14:22:51;;;;;;;;;;;18.80;99.90;;;;;;4994043;28;20321;-86
2021/01/27 14:25:19;;;;;;;;;;;18.90;99.90;;;;;;4993420;28;19984;-86
2021/01/27 14:27:49;;;;;;;;;;;18.90;99.90;;;;;;4993770;28;19968;-86
2021/01/27 14:30:16;;;;;;;;;;;19.00;99.90;;;;;;4994233;28;19957;-85
2021/01/27 14:32:43;;;;;;;;;;;19.00;99.90;;;;;;4996460;28;20387;-86
2021/01/27 14:35:10;;;;;;;;;;;18.90;99.90;;;;;;4997493;28;19910;-84
2021/01/27 14:37:37;;;;;;;;;;;18.90;99.90;;;;;;4997304;28;20048;-87
2021/01/27 14:40:04;;;;;;;;;;;18.90;99.90;;;;;;4997266;28;20280;-85
2021/01/27 14:42:31;;;;;;;;;;;18.90;99.90;;;;;;4997168;28;20391;-84